createdAt,value
2019-04-22T01:40:25.333Z,99.90
2019-04-22T01:46:18.380Z,99.90
2019-04-22T01:48:47.924Z,99.90
2019-04-22T01:51:35.618Z,99.90
2019-04-22T01:57:41.418Z,99.90
2019-04-22T02:01:15.955Z,99.90
2019-04-22T02:19:19.034Z,99.90
2019-04-22T02:21:48.825Z,99.90
2019-04-22T02:24:33.413Z,99.90
2019-04-22T02:27:10.733Z,99.90
2019-04-22T02:29:51.888Z,99.90
2019-04-22T02:33:03.845Z,99.90
2019-04-22T02:44:26.335Z,99.90
2019-04-22T02:50:06.504Z,99.90
2019-04-22T02:53:58.372Z,99.90
2019-04-22T03:02:43.524Z,99.90
2019-04-22T06:21:44.769Z,99.90
2019-04-22T06:24:23.291Z,99.90
2019-04-22T07:25:34.834Z,99.80
2019-04-22T07:28:43.849Z,99.00
2019-04-22T07:34:39.989Z,98.60
2019-04-22T07:57:42.089Z,90.30
2019-04-22T08:07:36.545Z,78.70
2019-04-22T08:10:18.170Z,73.50
2019-04-22T08:15:27.245Z,70.90
2019-04-22T08:21:22.375Z,67.10
2019-04-22T08:23:56.930Z,66.30
2019-04-22T08:26:27.318Z,65.60
2019-04-22T08:31:35.638Z,64.00
2019-04-22T08:34:08.295Z,61.10
2019-04-22T08:36:40.957Z,61.70
2019-04-22T08:42:23.547Z,61.20
2019-04-22T09:00:20.330Z,55.40
2019-04-22T09:02:54.040Z,54.10
2019-04-22T09:05:43.517Z,54.00
2019-04-22T09:08:05.643Z,54.00
2019-04-22T09:10:33.517Z,54.00
2019-04-22T09:13:11.995Z,52.40
2019-04-22T09:15:50.938Z,51.80
2019-04-22T09:19:38.564Z,51.50
2019-04-22T09:22:11.287Z,50.30
2019-04-22T09:24:48.836Z,48.80
2019-04-22T09:33:20.947Z,47.40
2019-04-22T09:35:52.175Z,47.70
2019-04-22T09:38:31.542Z,47.80
2019-04-22T09:41:00.928Z,47.80
2019-04-22T09:43:41.127Z,47.70
2019-04-22T09:46:32.724Z,48.40
2019-04-22T09:49:55.041Z,47.80
2019-04-22T09:53:02.364Z,47.20
2019-04-22T10:05:41.135Z,47.00
2019-04-22T10:14:22.966Z,46.40
2019-04-22T10:16:51.414Z,46.00
2019-04-22T10:19:23.191Z,46.70
2019-04-22T10:21:57.237Z,46.50
2019-04-22T10:24:29.635Z,45.50
2019-04-22T10:26:57.126Z,44.00
2019-04-22T10:32:27.986Z,43.20
2019-04-22T10:35:12.306Z,43.40
2019-04-22T10:55:09.751Z,42.30
2019-04-22T10:57:41.562Z,40.40
2019-04-22T11:01:29.696Z,40.30
2019-04-22T11:14:27.005Z,41.00
2019-04-22T11:20:21.782Z,40.60
2019-04-22T11:23:02.666Z,40.70
2019-04-22T11:25:32.343Z,41.70
2019-04-22T11:28:07.403Z,41.10
2019-04-22T11:30:38.760Z,40.80
2019-04-22T11:33:08.693Z,40.80
2019-04-22T11:35:39.604Z,41.80
2019-04-22T12:12:57.745Z,41.20
2019-04-22T12:16:43.719Z,42.70
2019-04-22T12:19:00.874Z,42.50
2019-04-22T12:28:41.144Z,41.00
2019-04-22T12:31:11.524Z,42.20
2019-04-22T12:33:43.304Z,42.50
2019-04-22T12:36:13.031Z,42.70
2019-04-22T12:38:42.451Z,42.80
2019-04-22T12:41:14.124Z,43.50
2019-04-22T12:43:45.199Z,43.20
2019-04-22T12:46:14.575Z,43.00
2019-04-22T12:48:45.133Z,43.30
2019-04-22T12:51:15.322Z,43.70
2019-04-22T12:53:48.879Z,43.40
2019-04-22T12:59:55.411Z,42.90
2019-04-22T13:03:44.468Z,43.10
2019-04-22T13:06:39.779Z,43.40
2019-04-22T15:05:10.214Z,40.10
2019-04-22T15:07:57.226Z,40.20
2019-04-22T15:10:31.640Z,40.00
2019-04-22T15:17:22.870Z,40.60
2019-04-22T15:20:07.698Z,40.40
2019-04-22T15:22:38.869Z,41.20
2019-04-22T15:25:10.406Z,40.90
2019-04-22T15:27:41.596Z,40.90
2019-04-22T15:30:11.640Z,41.10
2019-04-22T15:32:45.486Z,40.90
2019-04-22T15:35:15.406Z,40.90
2019-04-22T15:37:48.975Z,40.90
2019-04-22T15:46:48.926Z,41.60
2019-04-22T15:52:55.543Z,41.20
2019-04-22T15:56:46.598Z,41.20
2019-04-22T15:59:50.501Z,41.40
2019-04-22T16:02:16.871Z,41.30
2019-04-22T16:04:46.634Z,41.50
2019-04-22T16:07:34.030Z,41.90
2019-04-22T16:09:54.001Z,41.60
2019-04-22T16:12:30.827Z,41.50
2019-04-22T16:15:03.122Z,41.90
2019-04-22T16:18:14.621Z,42.30
2019-04-22T16:20:50.330Z,42.70
2019-04-22T16:32:13.794Z,43.90
2019-04-22T16:34:45.871Z,44.30
2019-04-22T16:45:25.281Z,45.10
2019-04-22T16:47:55.598Z,45.10
2019-04-22T16:50:27.208Z,45.30
2019-04-22T16:52:57.807Z,45.50
2019-04-22T16:55:28.590Z,45.70
2019-04-22T16:57:58.718Z,45.60
2019-04-22T17:00:28.883Z,45.60
2019-04-22T17:03:14.015Z,45.40
2019-04-22T17:06:10.086Z,45.50
2019-04-22T17:08:39.382Z,45.80
2019-04-22T17:11:16.052Z,46.20
2019-04-22T17:13:46.164Z,46.30
2019-04-22T17:16:18.026Z,46.50
2019-04-22T17:18:47.921Z,46.60
2019-04-22T17:21:17.749Z,46.70
2019-04-22T17:23:49.897Z,47.00
2019-04-22T17:33:12.636Z,47.30
2019-04-22T17:35:17.845Z,47.40
2019-04-22T17:37:51.873Z,47.70
2019-04-22T17:40:51.136Z,48.00
2019-04-22T17:44:30.817Z,48.20
2019-04-22T17:46:57.709Z,48.30
2019-04-22T17:53:41.710Z,49.10
2019-04-22T17:56:10.249Z,49.40
2019-04-22T17:58:43.552Z,49.90
2019-04-22T18:01:29.941Z,50.10
2019-04-22T18:03:48.902Z,50.50
2019-04-22T18:06:55.198Z,50.90
2019-04-22T18:09:41.169Z,51.20
2019-04-22T18:12:04.733Z,51.40
2019-04-22T18:17:08.452Z,51.90
2019-04-22T18:19:40.239Z,52.30
2019-04-22T18:22:19.922Z,52.40
2019-04-22T18:24:53.080Z,52.60
2019-04-22T18:30:40.133Z,53.20
2019-04-22T18:33:38.578Z,53.40
2019-04-22T18:49:53.075Z,55.10
2019-04-22T18:59:33.801Z,55.70
2019-04-22T19:02:07.801Z,56.00
2019-04-22T19:05:08.782Z,56.10
2019-04-22T19:11:17.464Z,56.50
2019-04-22T19:14:07.705Z,56.80
2019-04-22T19:16:42.200Z,56.70
2019-04-22T19:19:30.431Z,56.90
2019-04-22T19:21:53.145Z,57.00
2019-04-22T19:24:19.658Z,57.20
2019-04-22T19:27:31.370Z,57.50
2019-04-22T19:30:12.368Z,57.60
2019-04-22T19:32:38.398Z,57.80
2019-04-22T19:35:11.559Z,57.80
2019-04-22T19:41:36.810Z,58.40
2019-04-22T19:44:04.074Z,58.60
2019-04-22T19:46:28.580Z,58.70
2019-04-22T19:49:10.574Z,59.00
2019-04-22T19:51:47.536Z,59.30
2019-04-22T19:54:12.621Z,59.20
2019-04-22T19:56:35.767Z,59.20
2019-04-22T19:59:08.792Z,59.90
2019-04-22T20:01:54.873Z,59.90
2019-04-22T20:05:14.639Z,59.80
2019-04-22T20:07:38.502Z,60.00
2019-04-22T20:10:18.554Z,60.40
2019-04-22T20:12:42.520Z,60.60
2019-04-22T20:15:15.612Z,60.90
2019-04-22T20:18:11.870Z,61.80
2019-04-22T20:20:23.228Z,61.20
2019-04-22T20:22:44.446Z,61.60
2019-04-22T20:25:10.905Z,61.60
2019-04-22T20:27:54.441Z,61.90
2019-04-22T20:30:30.052Z,62.30
2019-04-22T20:32:51.418Z,62.60
2019-04-22T20:35:32.757Z,62.70
2019-04-22T20:38:07.310Z,62.60
2019-04-22T20:40:38.762Z,63.10
2019-04-22T20:43:10.393Z,63.10
2019-04-22T20:45:36.423Z,63.20
2019-04-22T20:47:53.815Z,63.30
2019-04-22T20:50:34.716Z,64.00
2019-04-22T20:53:11.890Z,63.90
2019-04-22T20:55:40.517Z,64.00
2019-04-22T20:58:13.535Z,64.20
2019-04-22T21:00:36.239Z,64.40
2019-04-22T21:03:03.720Z,64.80
2019-04-22T21:05:38.244Z,65.10
2019-04-22T21:08:19.402Z,65.10
2019-04-22T21:10:40.157Z,65.20
2019-04-22T21:13:14.423Z,65.70
2019-04-22T21:15:49.276Z,65.70
2019-04-22T21:18:19.197Z,66.10
2019-04-22T21:20:57.524Z,66.80
2019-04-22T21:23:22.993Z,66.80
2019-04-22T21:26:00.919Z,67.40
2019-04-22T21:28:33.111Z,68.30
2019-04-22T21:30:58.270Z,68.50
2019-04-22T21:33:25.134Z,69.30
2019-04-22T21:36:14.257Z,69.90
2019-04-22T21:38:40.304Z,70.90
2019-04-22T21:41:04.984Z,72.20
2019-04-22T21:43:35.919Z,72.90
2019-04-22T21:46:11.881Z,74.20
2019-04-22T21:48:42.248Z,74.40
2019-04-22T21:51:11.141Z,75.80
2019-04-22T21:53:50.419Z,78.00
2019-04-22T21:56:33.698Z,79.00
2019-04-22T21:58:56.124Z,81.10
2019-04-22T22:01:50.039Z,82.90
2019-04-22T22:04:15.306Z,85.60
2019-04-22T22:06:37.999Z,87.20
2019-04-22T22:09:20.402Z,90.00
2019-04-22T22:11:49.515Z,90.60
2019-04-22T22:14:22.871Z,91.60
2019-04-22T22:16:50.561Z,92.50
2019-04-22T22:19:30.117Z,93.40
2019-04-22T22:22:13.885Z,94.20
2019-04-22T22:24:49.831Z,95.90
2019-04-22T22:27:30.104Z,96.30
2019-04-22T22:30:18.975Z,97.30
2019-04-22T22:32:35.139Z,98.20
2019-04-22T22:35:20.579Z,98.30
2019-04-22T22:37:50.206Z,98.90
2019-04-22T22:40:11.193Z,99.40
2019-04-22T22:42:47.961Z,99.80
2019-04-22T22:45:26.315Z,99.80
2019-04-22T22:48:36.424Z,99.90
2019-04-22T22:50:58.513Z,99.80
2019-04-22T22:53:42.902Z,99.90
2019-04-22T22:56:10.706Z,99.90
2019-04-22T22:58:40.841Z,99.90
2019-04-22T23:01:36.138Z,99.90
2019-04-22T23:04:23.771Z,99.90
2019-04-22T23:06:46.289Z,99.90
2019-04-22T23:09:14.516Z,99.90
2019-04-22T23:14:18.860Z,99.90
2019-04-22T23:16:35.460Z,99.90
2019-04-22T23:19:02.236Z,99.90
2019-04-22T23:21:39.791Z,99.90
2019-04-22T23:24:28.280Z,99.90
2019-04-22T23:27:19.383Z,99.90
2019-04-22T23:30:03.974Z,99.90
2019-04-22T23:32:35.493Z,99.90
2019-04-22T23:35:16.749Z,99.90
2019-04-22T23:37:52.358Z,99.90
2019-04-22T23:40:29.664Z,99.90
2019-04-22T23:43:00.094Z,99.90
2019-04-22T23:45:29.147Z,99.90
2019-04-22T23:47:47.376Z,99.90
2019-04-22T23:50:31.166Z,99.90
2019-04-22T23:53:00.572Z,99.90
2019-04-22T23:55:34.242Z,99.90
2019-04-22T23:58:02.716Z,99.90
